createdAt,value
2018-01-17T00:00:13.947Z,95619.83
2018-01-17T00:01:18.612Z,95606.25
2018-01-17T00:02:23.324Z,95603.47
2018-01-17T00:03:27.977Z,95609.66
2018-01-17T00:04:33.037Z,95612.54
2018-01-17T00:05:37.679Z,95612.09
2018-01-17T00:06:42.286Z,95618.98
2018-01-17T00:07:46.936Z,95624.69
2018-01-17T00:08:51.534Z,95625.09
2018-01-17T00:09:56.173Z,95615.59
2018-01-17T00:11:01.340Z,95628.32
2018-01-17T00:12:05.946Z,95622.85
2018-01-17T00:13:10.768Z,95618.05
2018-01-17T00:14:15.352Z,95622.19
2018-01-17T00:15:19.972Z,95612.77
2018-01-17T00:16:24.655Z,95617.98
2018-01-17T00:17:29.601Z,95610.25
2018-01-17T00:18:34.263Z,95608.29
2018-01-17T00:19:38.852Z,95603.39
2018-01-17T00:20:43.464Z,95602.59
2018-01-17T00:21:48.141Z,95606.40
2018-01-17T00:22:52.820Z,95604.37
2018-01-17T00:23:57.922Z,95609.23
2018-01-17T00:25:02.576Z,95607.67
2018-01-17T00:26:07.341Z,95610.80
2018-01-17T00:27:12.118Z,95601.59
2018-01-17T00:28:16.802Z,95601.89
2018-01-17T00:29:21.487Z,95608.56
2018-01-17T00:30:26.748Z,95603.31
2018-01-17T00:31:31.647Z,95601.07
2018-01-17T00:32:36.339Z,95601.13
2018-01-17T00:33:41.117Z,95601.77
2018-01-17T00:34:45.780Z,95602.48
2018-01-17T00:35:50.486Z,95590.47
2018-01-17T00:36:55.621Z,95598.11
2018-01-17T00:38:00.386Z,95587.20
2018-01-17T00:39:05.439Z,95591.72
2018-01-17T00:40:10.142Z,95591.05
2018-01-17T00:41:14.866Z,95594.15
2018-01-17T00:42:19.561Z,95593.22
2018-01-17T00:43:24.747Z,95592.42
2018-01-17T00:44:29.449Z,95584.19
2018-01-17T00:45:34.212Z,95579.64
2018-01-17T00:46:38.932Z,95587.91
2018-01-17T00:47:43.751Z,95574.30
2018-01-17T00:48:48.451Z,95580.92
2018-01-17T00:49:53.790Z,95586.71
2018-01-17T00:50:58.453Z,95583.66
2018-01-17T00:52:03.191Z,95573.77
2018-01-17T00:53:07.941Z,95574.88
2018-01-17T00:54:12.643Z,95573.68
2018-01-17T00:55:17.321Z,95574.96
2018-01-17T00:56:22.377Z,95571.25
2018-01-17T00:57:27.064Z,95567.45
2018-01-17T00:58:31.801Z,95567.01
2018-01-17T00:59:36.524Z,95564.84
2018-01-17T01:00:41.246Z,95563.20
2018-01-17T01:01:45.880Z,95570.32
2018-01-17T01:02:51.125Z,95557.33
2018-01-17T01:03:55.716Z,95558.52
2018-01-17T01:05:00.320Z,95564.22
2018-01-17T01:06:04.940Z,95560.52
2018-01-17T01:07:09.565Z,95551.45
2018-01-17T01:08:14.184Z,95552.56
2018-01-17T01:09:19.231Z,95552.82
2018-01-17T01:10:23.858Z,95544.65
2018-01-17T01:11:28.475Z,95548.28
2018-01-17T01:12:33.078Z,95549.52
2018-01-17T01:13:38.420Z,95540.94
2018-01-17T01:14:43.116Z,95539.35
2018-01-17T01:15:48.194Z,95540.10
2018-01-17T01:16:52.713Z,95539.70
2018-01-17T01:17:57.353Z,95559.05
2018-01-17T01:19:01.946Z,95543.19
2018-01-17T01:20:06.576Z,95545.22
2018-01-17T01:21:11.208Z,95537.50
2018-01-17T01:22:16.262Z,95531.45
2018-01-17T01:23:21.677Z,95529.84
2018-01-17T01:24:26.253Z,95537.63
2018-01-17T01:25:30.850Z,95533.08
2018-01-17T01:26:35.425Z,95529.72
2018-01-17T01:27:40.053Z,95538.33
2018-01-17T01:28:45.307Z,95550.66
2018-01-17T01:29:50.047Z,95547.47
2018-01-17T01:30:54.759Z,95548.63
2018-01-17T01:31:59.665Z,95546.68
2018-01-17T01:33:04.402Z,95539.03
2018-01-17T01:34:09.228Z,95551.00
2018-01-17T01:35:14.255Z,95550.97
2018-01-17T01:36:19.019Z,95555.47
2018-01-17T01:37:23.705Z,95551.02
2018-01-17T01:38:28.408Z,95546.46
2018-01-17T01:39:33.086Z,95543.72
2018-01-17T01:40:37.658Z,95548.63
2018-01-17T01:41:42.681Z,95565.72
2018-01-17T01:42:47.304Z,95563.02
2018-01-17T01:43:51.930Z,95559.05
2018-01-17T01:44:56.531Z,95565.98
2018-01-17T01:46:01.153Z,95565.28
2018-01-17T01:47:06.161Z,95567.57
2018-01-17T01:48:11.270Z,95574.73
2018-01-17T01:49:15.850Z,95570.75
2018-01-17T01:50:20.458Z,95553.92
2018-01-17T01:51:25.150Z,95550.13
2018-01-17T01:52:29.858Z,95567.93
2018-01-17T01:53:34.540Z,95582.06
2018-01-17T01:54:39.612Z,95569.34
2018-01-17T01:55:44.308Z,95581.63
2018-01-17T01:56:48.978Z,95566.82
2018-01-17T01:57:53.730Z,95582.77
2018-01-17T01:58:58.410Z,95566.03
2018-01-17T02:00:03.095Z,95572.57
2018-01-17T02:01:08.360Z,95570.49
2018-01-17T02:02:12.983Z,95574.82
2018-01-17T02:03:17.654Z,95558.13
2018-01-17T02:04:22.199Z,95571.56
2018-01-17T02:05:26.745Z,95560.77
2018-01-17T02:06:31.356Z,95545.40
2018-01-17T02:07:36.191Z,95551.05
2018-01-17T02:08:40.737Z,95553.57
2018-01-17T02:09:45.347Z,95563.20
2018-01-17T02:10:50.034Z,95549.24
2018-01-17T02:11:54.752Z,95550.80
2018-01-17T02:12:59.455Z,95533.56
2018-01-17T02:14:04.456Z,95540.84
2018-01-17T02:15:09.156Z,95538.51
2018-01-17T02:16:13.858Z,95536.16
2018-01-17T02:17:18.642Z,95533.24
2018-01-17T02:18:23.292Z,95532.36
2018-01-17T02:19:27.920Z,95530.81
2018-01-17T02:20:32.907Z,95537.05
2018-01-17T02:21:37.654Z,95535.41
2018-01-17T02:22:42.329Z,95532.66
2018-01-17T02:23:47.013Z,95533.95
2018-01-17T02:24:51.646Z,95527.53
2018-01-17T02:25:56.321Z,95535.53
2018-01-17T02:27:01.389Z,95527.59
2018-01-17T02:28:06.024Z,95531.83
2018-01-17T02:29:10.617Z,95546.23
2018-01-17T02:30:15.378Z,95547.25
2018-01-17T02:31:21.621Z,95539.83
2018-01-17T02:32:26.375Z,95549.50
2018-01-17T02:33:31.514Z,95542.17
2018-01-17T02:34:36.238Z,95539.56
2018-01-17T02:35:40.943Z,95540.84
2018-01-17T02:36:45.623Z,95536.95
2018-01-17T02:37:50.340Z,95556.84
2018-01-17T02:38:54.971Z,95543.58
2018-01-17T02:40:04.190Z,95552.77
2018-01-17T02:41:08.910Z,95524.81
2018-01-17T02:42:13.624Z,95538.69
2018-01-17T02:43:18.369Z,95535.00
2018-01-17T02:44:23.062Z,95547.08
2018-01-17T02:45:27.752Z,95572.63
2018-01-17T02:46:32.816Z,95541.56
2018-01-17T02:47:37.551Z,95552.52
2018-01-17T02:48:42.236Z,95540.10
2018-01-17T02:49:46.925Z,95545.53
2018-01-17T02:50:51.654Z,95557.37
2018-01-17T02:51:56.313Z,95544.47
2018-01-17T02:53:01.264Z,95576.06
2018-01-17T02:54:05.960Z,95565.20
2018-01-17T02:55:10.584Z,95550.66
2018-01-17T02:56:15.202Z,95557.06
2018-01-17T02:57:20.485Z,95573.94
2018-01-17T02:58:25.121Z,95570.05
2018-01-17T02:59:30.193Z,95552.91
2018-01-17T03:00:34.768Z,95574.56
2018-01-17T03:01:41.113Z,95577.70
2018-01-17T03:02:45.753Z,95560.42
2018-01-17T03:03:50.285Z,95566.34
2018-01-17T03:04:54.814Z,95565.67
2018-01-17T03:05:59.858Z,95564.30
2018-01-17T03:07:04.501Z,95577.43
2018-01-17T03:08:09.073Z,95576.59
2018-01-17T03:09:13.765Z,95565.94
2018-01-17T03:10:18.462Z,95584.34
2018-01-17T03:11:23.066Z,95571.77
2018-01-17T03:12:28.142Z,95557.92
2018-01-17T03:13:32.743Z,95576.16
2018-01-17T03:14:37.385Z,95567.10
2018-01-17T03:15:41.978Z,95562.16
2018-01-17T03:16:46.685Z,95573.11
2018-01-17T03:17:51.495Z,95568.88
2018-01-17T03:18:56.571Z,95553.84
2018-01-17T03:20:01.382Z,95581.73
2018-01-17T03:21:06.381Z,95553.36
2018-01-17T03:22:11.060Z,95560.39
2018-01-17T03:23:15.801Z,95549.35
2018-01-17T03:24:20.515Z,95563.81
2018-01-17T03:25:25.723Z,95567.48
2018-01-17T03:26:30.446Z,95563.87
2018-01-17T03:27:35.179Z,95555.47
2018-01-17T03:28:39.993Z,95578.09
2018-01-17T03:29:44.698Z,95568.59
2018-01-17T03:30:49.598Z,95574.56
2018-01-17T03:31:54.594Z,95563.16
2018-01-17T03:32:59.328Z,95567.31
2018-01-17T03:34:04.594Z,95547.47
2018-01-17T03:35:09.288Z,95543.15
2018-01-17T03:36:13.984Z,95559.59
2018-01-17T03:37:18.721Z,95545.18
2018-01-17T03:38:23.893Z,95578.19
2018-01-17T03:39:28.484Z,95558.51
2018-01-17T03:40:33.093Z,95567.45
2018-01-17T03:41:37.724Z,95558.59
2018-01-17T03:42:42.312Z,95567.17
2018-01-17T03:43:46.912Z,95568.02
2018-01-17T03:44:51.944Z,95568.33
2018-01-17T03:45:56.562Z,95549.69
2018-01-17T03:47:01.182Z,95545.39
2018-01-17T03:48:05.993Z,95566.20
2018-01-17T03:49:11.756Z,95597.23
2018-01-17T03:50:16.430Z,95561.13
2018-01-17T03:51:21.519Z,95578.14
2018-01-17T03:52:26.146Z,95566.60
2018-01-17T03:53:30.944Z,95586.10
2018-01-17T03:54:35.777Z,95573.72
2018-01-17T03:55:40.577Z,95589.01
2018-01-17T03:56:45.304Z,95582.02
2018-01-17T03:57:50.577Z,95564.52
2018-01-17T03:58:55.265Z,95561.09
2018-01-17T03:59:59.916Z,95606.25
2018-01-17T04:01:04.595Z,95604.97
2018-01-17T04:02:09.283Z,95602.03
2018-01-17T04:03:14.032Z,95576.83
2018-01-17T04:04:19.069Z,95581.94
2018-01-17T04:05:23.732Z,95592.34
2018-01-17T04:06:28.406Z,95590.27
2018-01-17T04:07:33.281Z,95564.94
2018-01-17T04:08:37.972Z,95587.63
2018-01-17T04:09:42.664Z,95575.34
2018-01-17T04:10:47.892Z,95572.54
2018-01-17T04:11:52.564Z,95594.38
2018-01-17T04:12:57.265Z,95590.47
2018-01-17T04:14:01.953Z,95596.75
2018-01-17T04:15:06.629Z,95604.70
2018-01-17T04:16:11.313Z,95603.83
2018-01-17T04:17:16.496Z,95579.83
2018-01-17T04:18:21.251Z,95584.25
2018-01-17T04:19:25.958Z,95593.45
2018-01-17T04:20:30.681Z,95608.49
2018-01-17T04:21:35.331Z,95615.12
2018-01-17T04:22:40.005Z,95611.23
2018-01-17T04:23:45.197Z,95620.16
2018-01-17T04:24:49.973Z,95615.88
2018-01-17T04:25:54.689Z,95610.87
2018-01-17T04:26:59.415Z,95619.49
2018-01-17T04:28:04.086Z,95617.46
2018-01-17T04:29:08.790Z,95603.77
2018-01-17T04:30:13.876Z,95620.47
2018-01-17T04:31:18.572Z,95597.64
2018-01-17T04:32:23.256Z,95583.02
2018-01-17T04:33:27.959Z,95595.66
2018-01-17T04:34:32.643Z,95592.57
2018-01-17T04:35:37.333Z,95595.75
2018-01-17T04:36:42.356Z,95607.36
2018-01-17T04:37:47.125Z,95611.07
2018-01-17T04:38:51.797Z,95612.71
2018-01-17T04:39:56.511Z,95580.80
2018-01-17T04:41:01.243Z,95604.71
2018-01-17T04:42:05.930Z,95619.88
2018-01-17T04:43:11.141Z,95599.25
2018-01-17T04:44:15.812Z,95590.73
2018-01-17T04:45:20.543Z,95584.30
2018-01-17T04:46:25.241Z,95585.63
2018-01-17T04:47:30.041Z,95611.13
2018-01-17T04:48:34.784Z,95627.27
2018-01-17T04:49:39.801Z,95600.54
2018-01-17T04:50:44.476Z,95610.17
2018-01-17T04:51:49.148Z,95604.65
2018-01-17T04:52:53.834Z,95610.27
2018-01-17T04:53:58.582Z,95605.18
2018-01-17T04:55:03.201Z,95608.49
2018-01-17T04:56:08.273Z,95614.81
2018-01-17T04:57:12.926Z,95604.52
2018-01-17T04:58:17.560Z,95601.78
2018-01-17T04:59:22.269Z,95602.35
2018-01-17T05:00:26.888Z,95608.67
2018-01-17T05:01:31.460Z,95583.36
2018-01-17T05:02:36.071Z,95599.30
2018-01-17T05:03:40.681Z,95600.09
2018-01-17T05:04:45.248Z,95602.00
2018-01-17T05:05:49.951Z,95583.09
2018-01-17T05:06:54.648Z,95590.40
2018-01-17T05:07:59.378Z,95607.08
2018-01-17T05:09:04.598Z,95605.31
2018-01-17T05:10:09.328Z,95609.86
2018-01-17T05:11:14.022Z,95616.05
2018-01-17T05:12:18.700Z,95613.75
2018-01-17T05:13:23.375Z,95619.32
2018-01-17T05:14:28.176Z,95625.91
2018-01-17T05:15:33.184Z,95630.67
2018-01-17T05:16:37.893Z,95630.28
2018-01-17T05:17:42.607Z,95613.88
2018-01-17T05:18:47.303Z,95613.70
2018-01-17T05:19:52.025Z,95649.59
2018-01-17T05:20:56.733Z,95665.19
2018-01-17T05:22:01.904Z,95683.97
2018-01-17T05:23:06.631Z,95688.75
2018-01-17T05:24:11.309Z,95691.08
2018-01-17T05:25:16.030Z,95696.42
2018-01-17T05:26:20.708Z,95695.02
2018-01-17T05:27:25.467Z,95703.20
2018-01-17T05:28:30.497Z,95701.75
2018-01-17T05:29:35.208Z,95704.21
2018-01-17T05:30:39.832Z,95673.97
2018-01-17T05:31:44.428Z,95679.00
2018-01-17T05:32:49.119Z,95678.73
2018-01-17T05:33:53.733Z,95683.36
2018-01-17T05:34:58.742Z,95691.88
2018-01-17T05:36:03.349Z,95689.61
2018-01-17T05:37:08.061Z,95711.59
2018-01-17T05:38:12.709Z,95701.92
2018-01-17T05:39:17.354Z,95701.44
2018-01-17T05:40:22.109Z,95699.81
2018-01-17T05:41:27.219Z,95706.78
2018-01-17T05:42:31.944Z,95705.70
2018-01-17T05:43:36.668Z,95706.22
2018-01-17T05:44:41.396Z,95710.84
2018-01-17T05:45:46.098Z,95712.91
2018-01-17T05:46:50.859Z,95702.11
2018-01-17T05:47:55.909Z,95699.59
2018-01-17T05:49:00.565Z,95694.94
2018-01-17T05:50:05.247Z,95698.25
2018-01-17T05:51:10.012Z,95698.09
2018-01-17T05:52:14.723Z,95707.45
2018-01-17T05:53:19.453Z,95700.88
2018-01-17T05:54:24.685Z,95711.92
2018-01-17T05:55:29.437Z,95713.99
2018-01-17T05:56:34.236Z,95724.86
2018-01-17T05:57:38.995Z,95716.77
2018-01-17T05:58:43.842Z,95722.43
2018-01-17T05:59:48.689Z,95720.92
2018-01-17T06:00:53.979Z,95732.98
2018-01-17T06:01:58.737Z,95732.11
2018-01-17T06:03:03.467Z,95733.42
2018-01-17T06:04:08.160Z,95743.18
2018-01-17T06:05:12.765Z,95741.55
2018-01-17T06:06:17.405Z,95756.05
2018-01-17T06:07:22.353Z,95755.16
2018-01-17T06:08:26.988Z,95752.62
2018-01-17T06:09:31.586Z,95768.59
2018-01-17T06:10:36.285Z,95766.48
2018-01-17T06:11:40.859Z,95762.10
2018-01-17T06:12:45.493Z,95768.34
2018-01-17T06:13:50.401Z,95768.23
2018-01-17T06:14:54.957Z,95764.77
2018-01-17T06:15:59.618Z,95778.71
2018-01-17T06:17:04.369Z,95776.24
2018-01-17T06:18:09.014Z,95775.28
2018-01-17T06:19:13.661Z,95776.99
2018-01-17T06:20:18.782Z,95781.53
2018-01-17T06:21:23.517Z,95782.68
2018-01-17T06:22:28.226Z,95771.81
2018-01-17T06:23:33.045Z,95779.19
2018-01-17T06:24:37.835Z,95776.95
2018-01-17T06:25:42.503Z,95796.83
2018-01-17T06:26:47.397Z,95790.14
2018-01-17T06:27:52.421Z,95788.59
2018-01-17T06:28:57.130Z,95802.10
2018-01-17T06:30:01.848Z,95805.01
2018-01-17T06:31:06.580Z,95788.88
2018-01-17T06:32:11.281Z,95809.00
2018-01-17T06:33:16.413Z,95798.72
2018-01-17T06:34:21.071Z,95805.98
2018-01-17T06:35:25.716Z,95801.92
2018-01-17T06:36:30.476Z,95827.77
2018-01-17T06:37:35.097Z,95826.17
2018-01-17T06:38:39.751Z,95810.88
2018-01-17T06:39:44.991Z,95834.63
2018-01-17T06:40:49.698Z,95831.36
2018-01-17T06:41:54.448Z,95835.10
2018-01-17T06:42:59.167Z,95843.34
2018-01-17T06:44:04.180Z,95835.58
2018-01-17T06:45:08.947Z,95844.45
2018-01-17T06:46:14.099Z,95847.48
2018-01-17T06:47:18.784Z,95850.53
2018-01-17T06:48:23.813Z,95862.52
2018-01-17T06:49:28.562Z,95854.94
2018-01-17T06:50:33.302Z,95851.99
2018-01-17T06:51:38.033Z,95858.78
2018-01-17T06:52:43.238Z,95868.42
2018-01-17T06:53:47.989Z,95875.23
2018-01-17T06:54:52.786Z,95868.34
2018-01-17T06:55:57.528Z,95857.22
2018-01-17T06:57:02.295Z,95880.66
2018-01-17T06:58:07.659Z,95856.80
2018-01-17T06:59:12.943Z,95870.00
2018-01-17T07:00:17.660Z,95872.66
2018-01-17T07:01:22.383Z,95894.02
2018-01-17T07:02:27.105Z,95888.88
2018-01-17T07:03:31.884Z,95906.20
2018-01-17T07:04:36.610Z,95894.09
2018-01-17T07:05:41.757Z,95906.98
2018-01-17T07:06:46.488Z,95914.04
2018-01-17T07:07:51.383Z,95914.00
2018-01-17T07:08:56.171Z,95913.09
2018-01-17T07:10:00.885Z,95906.78
2018-01-17T07:11:05.661Z,95905.68
2018-01-17T07:12:10.843Z,95911.09
2018-01-17T07:13:15.633Z,95912.52
2018-01-17T07:14:20.431Z,95918.55
2018-01-17T07:15:25.101Z,95920.10
2018-01-17T07:16:29.723Z,95922.33
2018-01-17T07:17:34.267Z,95921.45
2018-01-17T07:18:39.317Z,95920.10
2018-01-17T07:19:43.888Z,95942.97
2018-01-17T07:20:48.519Z,95924.81
2018-01-17T07:21:53.051Z,95941.27
2018-01-17T07:22:57.673Z,95941.99
2018-01-17T07:24:02.488Z,95936.41
2018-01-17T07:25:07.157Z,95950.68
2018-01-17T07:26:11.949Z,95956.64
2018-01-17T07:27:17.524Z,95959.80
2018-01-17T07:28:22.266Z,95962.41
2018-01-17T07:29:27.201Z,95950.11
2018-01-17T07:30:31.927Z,95952.13
2018-01-17T07:31:36.967Z,95972.91
2018-01-17T07:32:41.728Z,95962.67
2018-01-17T07:33:46.456Z,95958.20
2018-01-17T07:34:51.216Z,95973.78
2018-01-17T07:35:55.903Z,95988.28
2018-01-17T07:37:01.839Z,95981.02
2018-01-17T07:38:06.942Z,95974.80
2018-01-17T07:39:11.897Z,95985.92
2018-01-17T07:40:16.624Z,95978.95
2018-01-17T07:41:21.329Z,95988.68
2018-01-17T07:42:26.077Z,95992.34
2018-01-17T07:43:30.781Z,95989.38
2018-01-17T07:44:36.423Z,95990.72
2018-01-17T07:45:41.063Z,96002.52
2018-01-17T07:46:45.755Z,96005.98
2018-01-17T07:47:50.413Z,95983.41
2018-01-17T07:48:55.184Z,96007.58
2018-01-17T07:49:59.835Z,96006.73
2018-01-17T07:51:05.107Z,96017.82
2018-01-17T07:52:09.704Z,95995.23
2018-01-17T07:53:14.617Z,96000.61
2018-01-17T07:54:19.344Z,95999.98
2018-01-17T07:55:24.046Z,95993.98
2018-01-17T07:56:28.764Z,96014.66
2018-01-17T07:57:33.996Z,96008.81
2018-01-17T07:58:38.665Z,96012.12
2018-01-17T07:59:43.307Z,96006.99
2018-01-17T08:00:49.594Z,96005.43
2018-01-17T08:01:54.348Z,96016.38
2018-01-17T08:02:59.079Z,96011.03
2018-01-17T08:04:04.165Z,96022.87
2018-01-17T08:05:08.901Z,95992.34
2018-01-17T08:06:13.608Z,96009.39
2018-01-17T08:07:18.349Z,96010.92
2018-01-17T08:08:23.101Z,96011.68
2018-01-17T08:09:27.886Z,96030.07
2018-01-17T08:10:32.937Z,96034.47
2018-01-17T08:11:37.746Z,96036.75
2018-01-17T08:12:42.504Z,96017.50
2018-01-17T08:13:47.451Z,96015.53
2018-01-17T08:14:52.266Z,96008.73
2018-01-17T08:15:56.985Z,96001.50
2018-01-17T08:17:02.101Z,96019.05
2018-01-17T08:18:06.833Z,96032.86
2018-01-17T08:19:11.548Z,96037.95
2018-01-17T08:20:16.362Z,96037.99
2018-01-17T08:21:20.997Z,96041.25
2018-01-17T08:22:25.712Z,96056.81
2018-01-17T08:23:30.691Z,96045.52
2018-01-17T08:24:35.360Z,96034.75
2018-01-17T08:25:40.030Z,96039.63
2018-01-17T08:26:44.745Z,96043.19
2018-01-17T08:27:50.063Z,96040.30
2018-01-17T08:28:54.741Z,96049.64
2018-01-17T08:29:59.766Z,96047.61
2018-01-17T08:31:04.397Z,96052.19
2018-01-17T08:32:09.053Z,96066.77
2018-01-17T08:33:14.005Z,96069.97
2018-01-17T08:34:18.591Z,96061.45
2018-01-17T08:35:23.315Z,96070.84
2018-01-17T08:36:28.389Z,96049.29
2018-01-17T08:37:33.096Z,96074.66
2018-01-17T08:38:37.786Z,96078.58
2018-01-17T08:39:42.476Z,96102.59
2018-01-17T08:40:47.663Z,96084.30
2018-01-17T08:41:52.369Z,96079.98
2018-01-17T08:42:57.417Z,96092.34
2018-01-17T08:44:02.066Z,96074.32
2018-01-17T08:45:06.728Z,96093.32
2018-01-17T08:46:11.412Z,96073.30
2018-01-17T08:47:16.020Z,96094.78
2018-01-17T08:48:20.621Z,96051.87
2018-01-17T08:49:25.649Z,96052.23
2018-01-17T08:50:31.197Z,96079.38
2018-01-17T08:51:35.950Z,96104.56
2018-01-17T08:52:40.956Z,96099.47
2018-01-17T08:53:46.179Z,96107.18
2018-01-17T08:54:50.943Z,96105.72
2018-01-17T08:55:56.134Z,96089.41
2018-01-17T08:57:00.722Z,96108.63
2018-01-17T08:58:05.355Z,96043.66
2018-01-17T08:59:10.336Z,96116.84
2018-01-17T09:00:14.942Z,96114.91
2018-01-17T09:01:19.652Z,96123.95
2018-01-17T09:02:24.811Z,96115.45
2018-01-17T09:03:29.428Z,96128.13
2018-01-17T09:04:34.127Z,96130.92
2018-01-17T09:05:38.817Z,96134.55
2018-01-17T09:06:43.569Z,96118.48
2018-01-17T09:07:48.239Z,96116.38
2018-01-17T09:08:53.268Z,96125.09
2018-01-17T09:09:57.796Z,96129.95
2018-01-17T09:11:02.482Z,96130.53
2018-01-17T09:12:07.132Z,96148.93
2018-01-17T09:13:11.747Z,96122.69
2018-01-17T09:14:16.375Z,96137.95
2018-01-17T09:15:21.435Z,96144.02
2018-01-17T09:16:26.618Z,96135.55
2018-01-17T09:17:31.273Z,96147.77
2018-01-17T09:18:36.156Z,96150.67
2018-01-17T09:19:40.770Z,96147.13
2018-01-17T09:20:45.784Z,96156.25
2018-01-17T09:21:50.817Z,96156.91
2018-01-17T09:22:55.513Z,96167.36
2018-01-17T09:24:00.546Z,96141.22
2018-01-17T09:25:05.205Z,96158.38
2018-01-17T09:26:09.858Z,96148.47
2018-01-17T09:27:14.456Z,96167.30
2018-01-17T09:28:19.686Z,96167.84
2018-01-17T09:29:24.532Z,96160.53
2018-01-17T09:30:29.359Z,96175.50
2018-01-17T09:31:34.085Z,96194.00
2018-01-17T09:32:38.807Z,96173.19
2018-01-17T09:33:43.563Z,96183.17
2018-01-17T09:34:48.616Z,96182.67
2018-01-17T09:35:53.327Z,96198.93
2018-01-17T09:36:58.086Z,96193.84
2018-01-17T09:38:02.796Z,96198.97
2018-01-17T09:39:07.569Z,96188.31
2018-01-17T09:40:12.307Z,96199.75
2018-01-17T09:41:17.469Z,96190.03
2018-01-17T09:42:22.168Z,96196.11
2018-01-17T09:43:26.924Z,96192.09
2018-01-17T09:44:31.664Z,96197.63
2018-01-17T09:45:36.400Z,96180.67
2018-01-17T09:46:41.022Z,96215.23
2018-01-17T09:47:46.386Z,96207.36
2018-01-17T09:48:50.925Z,96227.59
2018-01-17T09:49:56.210Z,96232.14
2018-01-17T09:51:00.924Z,96219.84
2018-01-17T09:52:05.640Z,96223.68
2018-01-17T09:53:10.423Z,96238.52
2018-01-17T09:54:15.707Z,96221.28
2018-01-17T09:55:20.689Z,96241.42
2018-01-17T09:56:25.498Z,96205.58
2018-01-17T09:57:30.240Z,96219.47
2018-01-17T09:58:35.009Z,96223.63
2018-01-17T09:59:39.778Z,96219.70
2018-01-17T10:00:45.027Z,96236.14
2018-01-17T10:01:49.738Z,96238.98
2018-01-17T10:02:54.345Z,96232.59
2018-01-17T10:03:59.182Z,96239.55
2018-01-17T10:05:03.888Z,96234.64
2018-01-17T10:06:09.212Z,96244.33
2018-01-17T10:07:14.299Z,96248.88
2018-01-17T10:08:19.148Z,96229.88
2018-01-17T10:09:23.828Z,96254.72
2018-01-17T10:10:28.582Z,96254.22
2018-01-17T10:11:33.284Z,96254.38
2018-01-17T10:12:37.977Z,96250.94
2018-01-17T10:13:43.137Z,96247.10
2018-01-17T10:14:47.808Z,96237.05
2018-01-17T10:15:52.518Z,96258.72
2018-01-17T10:16:57.358Z,96266.37
2018-01-17T10:18:02.043Z,96256.55
2018-01-17T10:19:07.239Z,96276.75
2018-01-17T10:20:12.172Z,96263.12
2018-01-17T10:21:16.947Z,96262.29
2018-01-17T10:22:21.583Z,96277.75
2018-01-17T10:23:26.258Z,96269.10
2018-01-17T10:24:31.630Z,96277.55
2018-01-17T10:25:36.257Z,96277.22
2018-01-17T10:26:41.399Z,96259.69
2018-01-17T10:27:46.143Z,96279.73
2018-01-17T10:28:50.779Z,96294.48
2018-01-17T10:29:55.391Z,96280.80
2018-01-17T10:31:00.026Z,96291.48
2018-01-17T10:32:04.626Z,96288.08
2018-01-17T10:33:09.661Z,96262.53
2018-01-17T10:34:14.248Z,96265.06
2018-01-17T10:35:18.989Z,96295.19
2018-01-17T10:36:23.717Z,96297.93
2018-01-17T10:37:28.473Z,96303.20
2018-01-17T10:38:33.096Z,96288.47
2018-01-17T10:39:38.153Z,96292.28
2018-01-17T10:40:42.735Z,96295.28
2018-01-17T10:41:47.398Z,96282.29
2018-01-17T10:42:52.005Z,96299.87
2018-01-17T10:43:56.659Z,96290.91
2018-01-17T10:45:01.297Z,96289.61
2018-01-17T10:46:06.571Z,96291.44
2018-01-17T10:47:11.237Z,96282.31
2018-01-17T10:48:17.225Z,96274.89
2018-01-17T10:49:21.797Z,96273.85
2018-01-17T10:50:26.365Z,96288.06
2018-01-17T10:51:30.998Z,96300.33
2018-01-17T10:52:36.075Z,96304.44
2018-01-17T10:53:41.089Z,96308.95
2018-01-17T10:54:46.544Z,96323.31
2018-01-17T10:55:51.308Z,96319.58
2018-01-17T10:56:56.273Z,96318.50
2018-01-17T10:58:01.101Z,96325.82
2018-01-17T10:59:06.193Z,96333.16
2018-01-17T11:00:11.161Z,96314.86
2018-01-17T11:01:15.844Z,96326.87
2018-01-17T11:02:20.659Z,96314.70
2018-01-17T11:03:25.337Z,96335.10
2018-01-17T11:04:30.023Z,96346.09
2018-01-17T11:05:34.728Z,96322.54
2018-01-17T11:06:39.534Z,96342.95
2018-01-17T11:07:44.177Z,96349.03
2018-01-17T11:08:48.804Z,96349.97
2018-01-17T11:09:53.755Z,96343.29
2018-01-17T11:10:58.955Z,96349.67
2018-01-17T11:12:03.889Z,96338.18
2018-01-17T11:13:08.554Z,96332.73
2018-01-17T11:14:13.271Z,96330.16
2018-01-17T11:15:18.121Z,96335.14
2018-01-17T11:16:22.797Z,96344.16
2018-01-17T11:17:27.921Z,96300.41
2018-01-17T11:18:32.597Z,96339.22
2018-01-17T11:19:37.252Z,96317.41
2018-01-17T11:20:41.941Z,96334.64
2018-01-17T11:21:46.587Z,96340.22
2018-01-17T11:22:51.699Z,96337.98
2018-01-17T11:23:56.430Z,96341.13
2018-01-17T11:25:01.209Z,96351.11
2018-01-17T11:26:05.995Z,96337.21
2018-01-17T11:27:11.088Z,96348.23
2018-01-17T11:28:15.769Z,96315.23
2018-01-17T11:29:20.841Z,96320.37
2018-01-17T11:30:25.888Z,96335.81
2018-01-17T11:31:30.733Z,96346.07
2018-01-17T11:32:35.454Z,96328.92
2018-01-17T11:33:43.289Z,96332.57
2018-01-17T11:34:47.981Z,96322.08
2018-01-17T11:35:53.084Z,96336.34
2018-01-17T11:36:57.828Z,96340.52
2018-01-17T11:38:02.579Z,96324.28
2018-01-17T11:39:07.256Z,96315.86
2018-01-17T11:40:12.333Z,96331.42
2018-01-17T11:41:17.176Z,96328.77
2018-01-17T11:42:22.125Z,96335.63
2018-01-17T11:43:26.732Z,96362.84
2018-01-17T11:44:31.310Z,96353.42
2018-01-17T11:45:35.849Z,96340.45
2018-01-17T11:46:40.533Z,96313.28
2018-01-17T11:47:45.252Z,96353.05
2018-01-17T11:48:50.447Z,96351.63
2018-01-17T11:49:55.284Z,96336.66
2018-01-17T11:51:00.000Z,96340.67
2018-01-17T11:52:04.770Z,96326.98
2018-01-17T11:53:09.508Z,96345.08
2018-01-17T11:54:14.336Z,96327.25
2018-01-17T11:55:19.428Z,96327.98
2018-01-17T11:56:24.122Z,96329.95
2018-01-17T11:57:28.922Z,96345.09
2018-01-17T11:58:33.687Z,96357.05
2018-01-17T11:59:38.391Z,96337.34
2018-01-17T12:00:43.105Z,96355.84
2018-01-17T12:01:48.190Z,96347.27
2018-01-17T12:02:53.004Z,96331.27
2018-01-17T12:03:58.485Z,96334.64
2018-01-17T12:05:03.315Z,96335.94
2018-01-17T12:06:08.109Z,96336.28
2018-01-17T12:07:12.833Z,96335.68
2018-01-17T12:08:17.986Z,96350.45
2018-01-17T12:09:22.658Z,96328.93
2018-01-17T12:10:27.799Z,96326.36
2018-01-17T12:11:32.468Z,96341.73
2018-01-17T12:12:37.066Z,96322.95
2018-01-17T12:13:41.711Z,96328.66
2018-01-17T12:14:46.800Z,96338.32
2018-01-17T12:15:51.401Z,96361.23
2018-01-17T12:16:55.994Z,96326.59
2018-01-17T12:18:00.569Z,96350.84
2018-01-17T12:19:05.557Z,96340.63
2018-01-17T12:20:10.225Z,96298.94
2018-01-17T12:21:15.365Z,96349.52
2018-01-17T12:22:20.057Z,96337.81
2018-01-17T12:23:24.825Z,96354.42
2018-01-17T12:24:29.471Z,96358.83
2018-01-17T12:25:34.144Z,96328.87
2018-01-17T12:26:38.759Z,96317.50
2018-01-17T12:27:43.796Z,96332.98
2018-01-17T12:28:49.370Z,96335.20
2018-01-17T12:29:53.954Z,96344.10
2018-01-17T12:30:58.645Z,96365.55
2018-01-17T12:32:03.297Z,96360.44
2018-01-17T12:33:07.969Z,96353.13
2018-01-17T12:34:12.915Z,96333.11
2018-01-17T12:35:17.585Z,96349.87
2018-01-17T12:36:22.216Z,96332.00
2018-01-17T12:37:26.796Z,96357.77
2018-01-17T12:38:32.278Z,96322.75
2018-01-17T12:39:37.025Z,96319.27
2018-01-17T12:40:42.064Z,96343.73